sensor_id;sensor_type;location;lat;lon;timestamp;P1;durP1;ratioP1;P2;durP2;ratioP2
36457;SDS011;22480;50.546;12.292;2023-06-01T00:01:27;5.75;;;3.30;;
36457;SDS011;22480;50.546;12.292;2023-06-01T00:04:01;7.88;;;2.75;;
36457;SDS011;22480;50.546;12.292;2023-06-01T00:06:27;8.15;;;2.97;;
36457;SDS011;22480;50.546;12.292;2023-06-01T00:08:56;5.85;;;3.13;;
36457;SDS011;22480;50.546;12.292;2023-06-01T00:11:22;5.60;;;3.38;;
36457;SDS011;22480;50.546;12.292;2023-06-01T00:13:49;5.93;;;3.08;;
36457;SDS011;22480;50.546;12.292;2023-06-01T00:16:15;6.82;;;3.88;;
36457;SDS011;22480;50.546;12.292;2023-06-01T00:18:42;6.30;;;3.75;;
36457;SDS011;22480;50.546;12.292;2023-06-01T00:21:08;4.18;;;3.08;;
36457;SDS011;22480;50.546;12.292;2023-06-01T00:23:34;4.82;;;3.22;;
36457;SDS011;22480;50.546;12.292;2023-06-01T00:26:00;8.50;;;3.42;;
36457;SDS011;22480;50.546;12.292;2023-06-01T00:28:26;4.50;;;3.00;;
36457;SDS011;22480;50.546;12.292;2023-06-01T00:30:52;5.18;;;2.90;;
36457;SDS011;22480;50.546;12.292;2023-06-01T00:33:21;6.38;;;3.20;;
36457;SDS011;22480;50.546;12.292;2023-06-01T00:35:48;5.32;;;2.72;;
36457;SDS011;22480;50.546;12.292;2023-06-01T00:38:15;4.07;;;2.90;;
36457;SDS011;22480;50.546;12.292;2023-06-01T00:40:40;6.82;;;3.47;;
36457;SDS011;22480;50.546;12.292;2023-06-01T00:43:08;5.72;;;3.22;;
36457;SDS011;22480;50.546;12.292;2023-06-01T00:45:34;5.10;;;2.60;;
36457;SDS011;22480;50.546;12.292;2023-06-01T00:48:00;10.18;;;3.63;;
36457;SDS011;22480;50.546;12.292;2023-06-01T00:50:26;5.78;;;3.03;;
36457;SDS011;22480;50.546;12.292;2023-06-01T00:52:52;6.80;;;3.50;;
36457;SDS011;22480;50.546;12.292;2023-06-01T00:55:19;4.95;;;3.05;;
36457;SDS011;22480;50.546;12.292;2023-06-01T00:57:46;5.90;;;3.28;;
36457;SDS011;22480;50.546;12.292;2023-06-01T01:00:13;5.88;;;3.17;;
36457;SDS011;22480;50.546;12.292;2023-06-01T01:02:40;6.32;;;3.42;;
36457;SDS011;22480;50.546;12.292;2023-06-01T01:05:09;4.68;;;3.28;;
36457;SDS011;22480;50.546;12.292;2023-06-01T01:10:57;5.28;;;3.20;;
36457;SDS011;22480;50.546;12.292;2023-06-01T01:13:42;4.22;;;2.88;;
36457;SDS011;22480;50.546;12.292;2023-06-01T01:16:30;5.07;;;2.88;;
36457;SDS011;22480;50.546;12.292;2023-06-01T01:19:10;5.57;;;3.22;;
36457;SDS011;22480;50.546;12.292;2023-06-01T01:21:48;4.78;;;3.13;;
36457;SDS011;22480;50.546;12.292;2023-06-01T01:24:33;4.60;;;2.63;;
36457;SDS011;22480;50.546;12.292;2023-06-01T01:29:49;5.28;;;3.08;;
36457;SDS011;22480;50.546;12.292;2023-06-01T01:32:20;5.63;;;3.15;;
36457;SDS011;22480;50.546;12.292;2023-06-01T01:34:46;5.28;;;3.30;;
36457;SDS011;22480;50.546;12.292;2023-06-01T01:37:14;6.38;;;3.00;;
36457;SDS011;22480;50.546;12.292;2023-06-01T01:39:40;4.22;;;2.80;;
36457;SDS011;22480;50.546;12.292;2023-06-01T01:42:06;4.07;;;2.83;;
36457;SDS011;22480;50.546;12.292;2023-06-01T01:44:32;4.13;;;2.90;;
36457;SDS011;22480;50.546;12.292;2023-06-01T01:47:03;4.60;;;3.60;;
36457;SDS011;22480;50.546;12.292;2023-06-01T01:49:42;5.40;;;2.75;;
36457;SDS011;22480;50.546;12.292;2023-06-01T01:54:44;7.22;;;3.53;;
36457;SDS011;22480;50.546;12.292;2023-06-01T01:57:15;5.07;;;3.10;;
36457;SDS011;22480;50.546;12.292;2023-06-01T01:59:43;4.50;;;3.17;;
36457;SDS011;22480;50.546;12.292;2023-06-01T02:02:11;4.93;;;4.10;;
36457;SDS011;22480;50.546;12.292;2023-06-01T02:04:40;4.43;;;3.05;;
36457;SDS011;22480;50.546;12.292;2023-06-01T02:07:07;4.85;;;3.00;;
36457;SDS011;22480;50.546;12.292;2023-06-01T02:09:34;5.32;;;3.20;;
36457;SDS011;22480;50.546;12.292;2023-06-01T02:12:00;6.53;;;3.38;;
36457;SDS011;22480;50.546;12.292;2023-06-01T02:14:28;8.07;;;3.67;;
36457;SDS011;22480;50.546;12.292;2023-06-01T02:16:54;6.90;;;3.53;;
36457;SDS011;22480;50.546;12.292;2023-06-01T02:19:20;6.35;;;4.15;;
36457;SDS011;22480;50.546;12.292;2023-06-01T02:21:46;5.68;;;3.30;;
36457;SDS011;22480;50.546;12.292;2023-06-01T02:24:12;7.05;;;3.67;;
36457;SDS011;22480;50.546;12.292;2023-06-01T02:26:38;4.32;;;3.55;;
36457;SDS011;22480;50.546;12.292;2023-06-01T02:29:05;4.03;;;2.60;;
36457;SDS011;22480;50.546;12.292;2023-06-01T02:31:31;5.35;;;2.97;;
36457;SDS011;22480;50.546;12.292;2023-06-01T02:34:01;5.45;;;3.35;;
36457;SDS011;22480;50.546;12.292;2023-06-01T02:36:28;5.63;;;3.45;;
36457;SDS011;22480;50.546;12.292;2023-06-01T02:38:57;4.45;;;3.03;;
36457;SDS011;22480;50.546;12.292;2023-06-01T02:41:24;5.07;;;3.30;;
36457;SDS011;22480;50.546;12.292;2023-06-01T02:43:50;4.15;;;3.13;;
36457;SDS011;22480;50.546;12.292;2023-06-01T02:46:17;4.70;;;3.35;;
36457;SDS011;22480;50.546;12.292;2023-06-01T02:48:43;5.82;;;3.53;;
36457;SDS011;22480;50.546;12.292;2023-06-01T02:51:11;6.35;;;3.58;;
36457;SDS011;22480;50.546;12.292;2023-06-01T02:53:41;6.57;;;3.45;;
36457;SDS011;22480;50.546;12.292;2023-06-01T02:56:09;5.25;;;3.47;;
36457;SDS011;22480;50.546;12.292;2023-06-01T02:58:48;7.18;;;3.42;;
36457;SDS011;22480;50.546;12.292;2023-06-01T03:01:31;6.43;;;3.30;;
36457;SDS011;22480;50.546;12.292;2023-06-01T03:04:02;6.55;;;3.88;;
36457;SDS011;22480;50.546;12.292;2023-06-01T03:06:32;8.43;;;3.80;;
36457;SDS011;22480;50.546;12.292;2023-06-01T03:09:17;9.00;;;3.92;;
36457;SDS011;22480;50.546;12.292;2023-06-01T03:11:50;5.85;;;4.22;;
36457;SDS011;22480;50.546;12.292;2023-06-01T03:14:16;6.53;;;3.70;;
36457;SDS011;22480;50.546;12.292;2023-06-01T03:16:42;7.85;;;3.42;;
36457;SDS011;22480;50.546;12.292;2023-06-01T03:19:26;7.63;;;3.58;;
36457;SDS011;22480;50.546;12.292;2023-06-01T03:21:53;5.75;;;3.78;;
36457;SDS011;22480;50.546;12.292;2023-06-01T03:24:21;4.22;;;3.00;;
36457;SDS011;22480;50.546;12.292;2023-06-01T03:26:53;8.65;;;4.60;;
36457;SDS011;22480;50.546;12.292;2023-06-01T03:29:19;4.35;;;3.70;;
36457;SDS011;22480;50.546;12.292;2023-06-01T03:31:46;6.10;;;3.80;;
36457;SDS011;22480;50.546;12.292;2023-06-01T03:34:12;7.63;;;3.70;;
36457;SDS011;22480;50.546;12.292;2023-06-01T03:36:38;6.38;;;3.80;;
36457;SDS011;22480;50.546;12.292;2023-06-01T03:39:03;9.15;;;3.58;;
36457;SDS011;22480;50.546;12.292;2023-06-01T03:41:34;6.13;;;3.50;;
36457;SDS011;22480;50.546;12.292;2023-06-01T03:44:01;5.85;;;3.63;;
36457;SDS011;22480;50.546;12.292;2023-06-01T03:46:27;7.15;;;3.65;;
36457;SDS011;22480;50.546;12.292;2023-06-01T03:48:53;9.63;;;4.45;;
36457;SDS011;22480;50.546;12.292;2023-06-01T03:51:19;5.72;;;3.38;;
36457;SDS011;22480;50.546;12.292;2023-06-01T03:53:45;9.48;;;5.40;;
36457;SDS011;22480;50.546;12.292;2023-06-01T03:56:11;8.85;;;4.50;;
36457;SDS011;22480;50.546;12.292;2023-06-01T03:58:39;7.85;;;4.70;;
36457;SDS011;22480;50.546;12.292;2023-06-01T04:01:06;8.63;;;4.60;;
36457;SDS011;22480;50.546;12.292;2023-06-01T04:03:32;6.72;;;4.88;;
36457;SDS011;22480;50.546;12.292;2023-06-01T04:05:58;11.00;;;6.82;;
36457;SDS011;22480;50.546;12.292;2023-06-01T04:08:27;14.15;;;7.18;;
36457;SDS011;22480;50.546;12.292;2023-06-01T04:10:52;9.57;;;6.72;;
36457;SDS011;22480;50.546;12.292;2023-06-01T04:13:19;13.98;;;7.90;;
36457;SDS011;22480;50.546;12.292;2023-06-01T04:15:46;7.95;;;5.63;;
36457;SDS011;22480;50.546;12.292;2023-06-01T04:18:16;6.68;;;4.03;;
36457;SDS011;22480;50.546;12.292;2023-06-01T04:20:50;8.05;;;4.28;;
36457;SDS011;22480;50.546;12.292;2023-06-01T04:23:16;7.13;;;4.03;;
36457;SDS011;22480;50.546;12.292;2023-06-01T04:25:42;10.63;;;4.75;;
36457;SDS011;22480;50.546;12.292;2023-06-01T04:28:09;6.20;;;4.05;;
36457;SDS011;22480;50.546;12.292;2023-06-01T04:30:35;6.70;;;3.95;;
36457;SDS011;22480;50.546;12.292;2023-06-01T04:33:01;6.60;;;3.95;;
36457;SDS011;22480;50.546;12.292;2023-06-01T04:35:28;8.57;;;4.22;;
36457;SDS011;22480;50.546;12.292;2023-06-01T04:37:54;7.63;;;3.88;;
36457;SDS011;22480;50.546;12.292;2023-06-01T04:40:21;6.80;;;3.72;;
36457;SDS011;22480;50.546;12.292;2023-06-01T04:42:47;7.80;;;3.55;;
36457;SDS011;22480;50.546;12.292;2023-06-01T04:45:20;8.00;;;3.22;;
36457;SDS011;22480;50.546;12.292;2023-06-01T04:47:47;8.40;;;3.17;;
36457;SDS011;22480;50.546;12.292;2023-06-01T04:50:23;7.70;;;3.15;;
36457;SDS011;22480;50.546;12.292;2023-06-01T04:52:49;3.90;;;2.85;;
36457;SDS011;22480;50.546;12.292;2023-06-01T04:55:15;7.22;;;3.00;;
36457;SDS011;22480;50.546;12.292;2023-06-01T04:57:42;5.63;;;2.72;;
36457;SDS011;22480;50.546;12.292;2023-06-01T05:00:09;4.68;;;2.72;;
36457;SDS011;22480;50.546;12.292;2023-06-01T05:02:43;5.10;;;2.85;;
36457;SDS011;22480;50.546;12.292;2023-06-01T05:05:11;5.85;;;2.70;;
36457;SDS011;22480;50.546;12.292;2023-06-01T05:07:37;5.30;;;2.88;;
36457;SDS011;22480;50.546;12.292;2023-06-01T05:10:05;4.70;;;2.92;;
36457;SDS011;22480;50.546;12.292;2023-06-01T05:12:38;5.65;;;2.70;;
36457;SDS011;22480;50.546;12.292;2023-06-01T05:15:05;5.88;;;2.70;;
36457;SDS011;22480;50.546;12.292;2023-06-01T05:17:34;5.55;;;3.28;;
36457;SDS011;22480;50.546;12.292;2023-06-01T05:20:02;6.43;;;2.70;;
36457;SDS011;22480;50.546;12.292;2023-06-01T05:22:29;4.68;;;2.58;;
36457;SDS011;22480;50.546;12.292;2023-06-01T05:24:54;5.32;;;3.03;;
36457;SDS011;22480;50.546;12.292;2023-06-01T05:27:20;5.53;;;3.00;;
36457;SDS011;22480;50.546;12.292;2023-06-01T05:29:46;4.55;;;2.22;;
36457;SDS011;22480;50.546;12.292;2023-06-01T05:32:12;3.65;;;2.53;;
36457;SDS011;22480;50.546;12.292;2023-06-01T05:34:38;5.15;;;2.80;;
36457;SDS011;22480;50.546;12.292;2023-06-01T05:37:04;5.80;;;2.70;;
36457;SDS011;22480;50.546;12.292;2023-06-01T05:39:30;4.78;;;2.78;;
36457;SDS011;22480;50.546;12.292;2023-06-01T05:41:56;5.65;;;2.50;;
36457;SDS011;22480;50.546;12.292;2023-06-01T05:44:23;3.90;;;2.55;;
36457;SDS011;22480;50.546;12.292;2023-06-01T05:46:50;4.90;;;2.40;;
36457;SDS011;22480;50.546;12.292;2023-06-01T05:49:18;5.93;;;2.80;;
36457;SDS011;22480;50.546;12.292;2023-06-01T05:51:45;5.60;;;2.72;;
36457;SDS011;22480;50.546;12.292;2023-06-01T05:54:11;5.05;;;3.30;;
36457;SDS011;22480;50.546;12.292;2023-06-01T05:56:37;6.20;;;3.72;;
36457;SDS011;22480;50.546;12.292;2023-06-01T05:59:08;7.43;;;2.88;;
36457;SDS011;22480;50.546;12.292;2023-06-01T06:01:33;6.30;;;3.33;;
36457;SDS011;22480;50.546;12.292;2023-06-01T06:04:01;5.53;;;2.90;;
36457;SDS011;22480;50.546;12.292;2023-06-01T06:06:26;5.22;;;2.40;;
36457;SDS011;22480;50.546;12.292;2023-06-01T06:08:52;5.25;;;2.55;;
36457;SDS011;22480;50.546;12.292;2023-06-01T06:11:18;8.18;;;3.40;;
36457;SDS011;22480;50.546;12.292;2023-06-01T06:13:44;6.03;;;2.83;;
36457;SDS011;22480;50.546;12.292;2023-06-01T06:16:09;4.03;;;2.83;;
36457;SDS011;22480;50.546;12.292;2023-06-01T06:18:35;4.78;;;3.03;;
36457;SDS011;22480;50.546;12.292;2023-06-01T06:21:01;4.95;;;3.28;;
36457;SDS011;22480;50.546;12.292;2023-06-01T06:23:27;7.40;;;3.15;;
36457;SDS011;22480;50.546;12.292;2023-06-01T06:25:52;4.78;;;2.78;;
36457;SDS011;22480;50.546;12.292;2023-06-01T06:28:18;6.00;;;2.97;;
36457;SDS011;22480;50.546;12.292;2023-06-01T06:30:44;4.25;;;2.85;;
36457;SDS011;22480;50.546;12.292;2023-06-01T06:33:11;5.22;;;3.38;;
36457;SDS011;22480;50.546;12.292;2023-06-01T06:35:36;5.10;;;3.15;;
36457;SDS011;22480;50.546;12.292;2023-06-01T06:38:04;5.55;;;3.20;;
36457;SDS011;22480;50.546;12.292;2023-06-01T06:40:29;5.20;;;3.13;;
36457;SDS011;22480;50.546;12.292;2023-06-01T06:42:55;6.55;;;3.30;;
36457;SDS011;22480;50.546;12.292;2023-06-01T06:45:21;5.72;;;2.65;;
36457;SDS011;22480;50.546;12.292;2023-06-01T06:47:46;6.15;;;2.80;;
36457;SDS011;22480;50.546;12.292;2023-06-01T06:50:12;8.27;;;4.05;;
36457;SDS011;22480;50.546;12.292;2023-06-01T06:52:38;4.80;;;2.80;;
36457;SDS011;22480;50.546;12.292;2023-06-01T06:55:04;8.63;;;2.95;;
36457;SDS011;22480;50.546;12.292;2023-06-01T06:57:30;4.97;;;2.67;;
36457;SDS011;22480;50.546;12.292;2023-06-01T06:59:56;4.15;;;3.08;;
36457;SDS011;22480;50.546;12.292;2023-06-01T07:02:22;5.20;;;2.72;;
36457;SDS011;22480;50.546;12.292;2023-06-01T07:04:48;6.20;;;3.13;;
36457;SDS011;22480;50.546;12.292;2023-06-01T07:07:14;6.80;;;3.25;;
36457;SDS011;22480;50.546;12.292;2023-06-01T07:09:40;4.32;;;2.53;;
36457;SDS011;22480;50.546;12.292;2023-06-01T07:12:06;4.82;;;2.35;;
36457;SDS011;22480;50.546;12.292;2023-06-01T07:14:32;6.90;;;2.83;;
36457;SDS011;22480;50.546;12.292;2023-06-01T07:16:58;5.20;;;2.42;;
36457;SDS011;22480;50.546;12.292;2023-06-01T07:19:23;5.57;;;2.88;;
36457;SDS011;22480;50.546;12.292;2023-06-01T07:21:49;7.38;;;3.45;;
36457;SDS011;22480;50.546;12.292;2023-06-01T07:24:17;7.18;;;3.03;;
36457;SDS011;22480;50.546;12.292;2023-06-01T07:26:44;8.35;;;3.40;;
36457;SDS011;22480;50.546;12.292;2023-06-01T07:29:10;6.72;;;3.13;;
36457;SDS011;22480;50.546;12.292;2023-06-01T07:31:39;6.97;;;3.58;;
36457;SDS011;22480;50.546;12.292;2023-06-01T07:34:04;5.05;;;2.72;;
36457;SDS011;22480;50.546;12.292;2023-06-01T07:36:30;5.95;;;2.70;;
36457;SDS011;22480;50.546;12.292;2023-06-01T07:39:00;7.32;;;3.40;;
36457;SDS011;22480;50.546;12.292;2023-06-01T07:41:25;4.18;;;2.78;;
36457;SDS011;22480;50.546;12.292;2023-06-01T07:43:52;4.32;;;2.55;;
36457;SDS011;22480;50.546;12.292;2023-06-01T07:46:18;6.50;;;2.97;;
36457;SDS011;22480;50.546;12.292;2023-06-01T07:48:44;6.07;;;3.00;;
36457;SDS011;22480;50.546;12.292;2023-06-01T07:51:09;5.40;;;2.65;;
36457;SDS011;22480;50.546;12.292;2023-06-01T07:53:35;4.75;;;2.67;;
36457;SDS011;22480;50.546;12.292;2023-06-01T07:56:01;6.47;;;3.08;;
36457;SDS011;22480;50.546;12.292;2023-06-01T07:58:27;6.40;;;2.70;;
36457;SDS011;22480;50.546;12.292;2023-06-01T08:00:53;8.68;;;2.92;;
36457;SDS011;22480;50.546;12.292;2023-06-01T08:03:19;7.55;;;3.28;;
36457;SDS011;22480;50.546;12.292;2023-06-01T08:05:46;3.90;;;2.55;;
36457;SDS011;22480;50.546;12.292;2023-06-01T08:08:12;8.32;;;3.05;;
36457;SDS011;22480;50.546;12.292;2023-06-01T08:10:37;3.97;;;2.70;;
36457;SDS011;22480;50.546;12.292;2023-06-01T08:13:04;4.57;;;2.40;;
36457;SDS011;22480;50.546;12.292;2023-06-01T08:15:32;6.40;;;2.60;;
36457;SDS011;22480;50.546;12.292;2023-06-01T08:17:59;7.85;;;3.33;;
36457;SDS011;22480;50.546;12.292;2023-06-01T08:20:25;4.68;;;3.28;;
36457;SDS011;22480;50.546;12.292;2023-06-01T08:22:51;5.15;;;3.13;;
36457;SDS011;22480;50.546;12.292;2023-06-01T08:25:18;4.85;;;2.83;;
36457;SDS011;22480;50.546;12.292;2023-06-01T08:27:44;3.88;;;2.38;;
36457;SDS011;22480;50.546;12.292;2023-06-01T08:30:09;7.10;;;2.97;;
36457;SDS011;22480;50.546;12.292;2023-06-01T08:32:36;5.35;;;3.00;;
36457;SDS011;22480;50.546;12.292;2023-06-01T08:35:03;6.00;;;2.75;;
36457;SDS011;22480;50.546;12.292;2023-06-01T08:37:30;3.67;;;2.67;;
36457;SDS011;22480;50.546;12.292;2023-06-01T08:39:56;5.28;;;2.92;;
36457;SDS011;22480;50.546;12.292;2023-06-01T08:45:12;3.83;;;2.22;;
36457;SDS011;22480;50.546;12.292;2023-06-01T08:47:39;8.70;;;3.22;;
36457;SDS011;22480;50.546;12.292;2023-06-01T08:50:07;4.68;;;2.33;;
36457;SDS011;22480;50.546;12.292;2023-06-01T08:52:35;5.85;;;1.85;;
36457;SDS011;22480;50.546;12.292;2023-06-01T08:55:03;2.53;;;1.70;;
36457;SDS011;22480;50.546;12.292;2023-06-01T08:57:30;4.45;;;2.30;;
36457;SDS011;22480;50.546;12.292;2023-06-01T08:59:59;3.40;;;2.33;;
36457;SDS011;22480;50.546;12.292;2023-06-01T09:02:25;6.03;;;2.60;;
36457;SDS011;22480;50.546;12.292;2023-06-01T09:04:52;4.28;;;2.17;;
36457;SDS011;22480;50.546;12.292;2023-06-01T09:07:18;2.90;;;2.00;;
36457;SDS011;22480;50.546;12.292;2023-06-01T09:09:44;5.22;;;2.40;;
36457;SDS011;22480;50.546;12.292;2023-06-01T09:12:17;4.13;;;2.45;;
36457;SDS011;22480;50.546;12.292;2023-06-01T09:14:44;5.30;;;2.25;;
36457;SDS011;22480;50.546;12.292;2023-06-01T09:17:14;7.47;;;2.42;;
36457;SDS011;22480;50.546;12.292;2023-06-01T09:19:46;7.00;;;1.60;;
36457;SDS011;22480;50.546;12.292;2023-06-01T09:22:12;6.85;;;2.00;;
36457;SDS011;22480;50.546;12.292;2023-06-01T09:24:39;2.85;;;1.80;;
36457;SDS011;22480;50.546;12.292;2023-06-01T09:27:08;5.20;;;1.58;;
36457;SDS011;22480;50.546;12.292;2023-06-01T09:29:34;1.92;;;1.38;;
36457;SDS011;22480;50.546;12.292;2023-06-01T09:32:00;3.40;;;1.65;;
36457;SDS011;22480;50.546;12.292;2023-06-01T09:34:26;4.53;;;2.22;;
36457;SDS011;22480;50.546;12.292;2023-06-01T09:36:53;4.18;;;1.90;;
36457;SDS011;22480;50.546;12.292;2023-06-01T09:39:24;4.97;;;1.80;;
36457;SDS011;22480;50.546;12.292;2023-06-01T09:41:57;6.07;;;2.00;;
36457;SDS011;22480;50.546;12.292;2023-06-01T09:49:42;2.28;;;1.52;;
36457;SDS011;22480;50.546;12.292;2023-06-01T09:54:43;3.70;;;1.73;;
36457;SDS011;22480;50.546;12.292;2023-06-01T09:57:10;4.70;;;1.67;;
36457;SDS011;22480;50.546;12.292;2023-06-01T09:59:43;3.33;;;1.58;;
36457;SDS011;22480;50.546;12.292;2023-06-01T10:02:17;3.67;;;1.27;;
36457;SDS011;22480;50.546;12.292;2023-06-01T10:04:48;3.70;;;1.50;;
36457;SDS011;22480;50.546;12.292;2023-06-01T10:07:18;4.25;;;1.70;;
36457;SDS011;22480;50.546;12.292;2023-06-01T10:09:49;2.67;;;1.60;;
36457;SDS011;22480;50.546;12.292;2023-06-01T10:12:18;2.90;;;1.50;;
36457;SDS011;22480;50.546;12.292;2023-06-01T10:14:44;4.55;;;1.55;;
36457;SDS011;22480;50.546;12.292;2023-06-01T10:17:10;4.88;;;1.77;;
36457;SDS011;22480;50.546;12.292;2023-06-01T10:19:39;1.85;;;1.15;;
36457;SDS011;22480;50.546;12.292;2023-06-01T10:22:06;3.30;;;1.67;;
36457;SDS011;22480;50.546;12.292;2023-06-01T10:24:32;3.38;;;1.60;;
36457;SDS011;22480;50.546;12.292;2023-06-01T10:29:45;4.03;;;1.60;;
36457;SDS011;22480;50.546;12.292;2023-06-01T10:35:02;6.78;;;1.60;;
36457;SDS011;22480;50.546;12.292;2023-06-01T10:37:29;4.55;;;1.88;;
36457;SDS011;22480;50.546;12.292;2023-06-01T10:40:09;4.63;;;1.80;;
36457;SDS011;22480;50.546;12.292;2023-06-01T10:42:43;6.90;;;1.63;;
36457;SDS011;22480;50.546;12.292;2023-06-01T10:48:00;5.50;;;1.70;;
36457;SDS011;22480;50.546;12.292;2023-06-01T10:50:27;2.65;;;1.50;;
36457;SDS011;22480;50.546;12.292;2023-06-01T10:52:53;2.90;;;1.40;;
36457;SDS011;22480;50.546;12.292;2023-06-01T10:55:20;5.55;;;1.63;;
36457;SDS011;22480;50.546;12.292;2023-06-01T10:58:19;7.25;;;1.90;;
36457;SDS011;22480;50.546;12.292;2023-06-01T11:00:56;3.75;;;1.50;;
36457;SDS011;22480;50.546;12.292;2023-06-01T11:03:42;5.15;;;1.75;;
36457;SDS011;22480;50.546;12.292;2023-06-01T11:06:23;2.45;;;1.33;;
36457;SDS011;22480;50.546;12.292;2023-06-01T11:08:57;4.13;;;2.05;;
36457;SDS011;22480;50.546;12.292;2023-06-01T11:11:46;6.45;;;1.90;;
36457;SDS011;22480;50.546;12.292;2023-06-01T11:14:26;2.60;;;1.40;;
36457;SDS011;22480;50.546;12.292;2023-06-01T11:16:54;3.28;;;1.70;;
36457;SDS011;22480;50.546;12.292;2023-06-01T11:19:25;2.45;;;1.52;;
36457;SDS011;22480;50.546;12.292;2023-06-01T11:22:00;4.05;;;1.77;;
36457;SDS011;22480;50.546;12.292;2023-06-01T11:24:32;4.18;;;1.90;;
36457;SDS011;22480;50.546;12.292;2023-06-01T11:27:00;5.60;;;1.65;;
36457;SDS011;22480;50.546;12.292;2023-06-01T11:29:33;3.08;;;1.65;;
36457;SDS011;22480;50.546;12.292;2023-06-01T11:32:00;3.90;;;1.70;;
36457;SDS011;22480;50.546;12.292;2023-06-01T11:34:32;5.18;;;2.03;;
36457;SDS011;22480;50.546;12.292;2023-06-01T11:36:59;4.10;;;1.83;;
36457;SDS011;22480;50.546;12.292;2023-06-01T11:39:27;4.55;;;1.63;;
36457;SDS011;22480;50.546;12.292;2023-06-01T11:44:44;4.63;;;2.00;;
36457;SDS011;22480;50.546;12.292;2023-06-01T11:47:14;4.60;;;1.98;;
36457;SDS011;22480;50.546;12.292;2023-06-01T11:49:41;5.43;;;1.60;;
36457;SDS011;22480;50.546;12.292;2023-06-01T11:54:36;4.07;;;1.92;;
36457;SDS011;22480;50.546;12.292;2023-06-01T11:57:03;3.30;;;1.38;;
36457;SDS011;22480;50.546;12.292;2023-06-01T11:59:37;5.57;;;1.97;;
36457;SDS011;22480;50.546;12.292;2023-06-01T12:04:54;6.60;;;1.40;;
36457;SDS011;22480;50.546;12.292;2023-06-01T12:07:24;3.80;;;1.95;;
36457;SDS011;22480;50.546;12.292;2023-06-01T12:09:51;7.20;;;1.60;;
36457;SDS011;22480;50.546;12.292;2023-06-01T12:12:19;3.80;;;1.30;;
36457;SDS011;22480;50.546;12.292;2023-06-01T12:14:49;3.08;;;1.48;;
36457;SDS011;22480;50.546;12.292;2023-06-01T12:17:16;3.38;;;1.70;;
36457;SDS011;22480;50.546;12.292;2023-06-01T12:19:49;3.17;;;1.60;;
36457;SDS011;22480;50.546;12.292;2023-06-01T12:22:15;4.72;;;1.95;;
36457;SDS011;22480;50.546;12.292;2023-06-01T12:24:44;3.17;;;1.35;;
36457;SDS011;22480;50.546;12.292;2023-06-01T12:27:14;2.70;;;1.52;;
36457;SDS011;22480;50.546;12.292;2023-06-01T12:29:46;3.22;;;1.38;;
36457;SDS011;22480;50.546;12.292;2023-06-01T12:32:15;8.02;;;1.60;;
36457;SDS011;22480;50.546;12.292;2023-06-01T12:34:43;4.00;;;1.60;;
36457;SDS011;22480;50.546;12.292;2023-06-01T12:39:39;7.53;;;1.40;;
36457;SDS011;22480;50.546;12.292;2023-06-01T12:42:06;4.82;;;1.38;;
36457;SDS011;22480;50.546;12.292;2023-06-01T12:44:32;3.72;;;1.73;;
36457;SDS011;22480;50.546;12.292;2023-06-01T12:46:58;5.13;;;2.10;;
36457;SDS011;22480;50.546;12.292;2023-06-01T12:49:25;4.57;;;1.50;;
36457;SDS011;22480;50.546;12.292;2023-06-01T12:51:51;5.22;;;1.60;;
36457;SDS011;22480;50.546;12.292;2023-06-01T12:54:17;2.38;;;1.50;;
36457;SDS011;22480;50.546;12.292;2023-06-01T12:56:43;4.32;;;1.42;;
36457;SDS011;22480;50.546;12.292;2023-06-01T12:59:09;3.55;;;1.60;;
36457;SDS011;22480;50.546;12.292;2023-06-01T13:01:35;6.43;;;1.80;;
36457;SDS011;22480;50.546;12.292;2023-06-01T13:04:01;4.75;;;1.60;;
36457;SDS011;22480;50.546;12.292;2023-06-01T13:06:30;8.50;;;1.60;;
36457;SDS011;22480;50.546;12.292;2023-06-01T13:08:55;3.72;;;1.20;;
36457;SDS011;22480;50.546;12.292;2023-06-01T13:11:22;4.57;;;1.50;;
36457;SDS011;22480;50.546;12.292;2023-06-01T13:13:48;2.55;;;1.17;;
36457;SDS011;22480;50.546;12.292;2023-06-01T13:16:14;1.92;;;1.40;;
36457;SDS011;22480;50.546;12.292;2023-06-01T13:18:40;4.30;;;1.55;;
36457;SDS011;22480;50.546;12.292;2023-06-01T13:21:06;3.00;;;1.52;;
36457;SDS011;22480;50.546;12.292;2023-06-01T13:23:32;5.07;;;2.15;;
36457;SDS011;22480;50.546;12.292;2023-06-01T13:25:58;7.65;;;2.35;;
36457;SDS011;22480;50.546;12.292;2023-06-01T13:28:24;3.38;;;1.52;;
36457;SDS011;22480;50.546;12.292;2023-06-01T13:30:50;4.82;;;1.60;;
36457;SDS011;22480;50.546;12.292;2023-06-01T13:33:15;2.83;;;1.58;;
36457;SDS011;22480;50.546;12.292;2023-06-01T13:35:41;2.97;;;1.52;;
36457;SDS011;22480;50.546;12.292;2023-06-01T13:38:07;5.07;;;1.75;;
36457;SDS011;22480;50.546;12.292;2023-06-01T13:40:33;2.15;;;1.23;;
36457;SDS011;22480;50.546;12.292;2023-06-01T13:42:59;9.45;;;2.05;;
36457;SDS011;22480;50.546;12.292;2023-06-01T13:45:25;6.57;;;2.15;;
36457;SDS011;22480;50.546;12.292;2023-06-01T13:47:52;3.10;;;1.70;;
36457;SDS011;22480;50.546;12.292;2023-06-01T13:50:20;4.43;;;1.40;;
36457;SDS011;22480;50.546;12.292;2023-06-01T13:52:45;4.78;;;1.83;;
36457;SDS011;22480;50.546;12.292;2023-06-01T13:55:11;3.00;;;1.85;;
36457;SDS011;22480;50.546;12.292;2023-06-01T13:57:37;4.47;;;1.67;;
36457;SDS011;22480;50.546;12.292;2023-06-01T14:00:05;3.83;;;2.00;;
36457;SDS011;22480;50.546;12.292;2023-06-01T14:02:33;2.83;;;1.37;;
36457;SDS011;22480;50.546;12.292;2023-06-01T14:04:59;5.63;;;1.63;;
36457;SDS011;22480;50.546;12.292;2023-06-01T14:07:25;2.72;;;1.20;;
36457;SDS011;22480;50.546;12.292;2023-06-01T14:09:51;3.35;;;1.60;;
36457;SDS011;22480;50.546;12.292;2023-06-01T14:12:17;6.88;;;1.40;;
36457;SDS011;22480;50.546;12.292;2023-06-01T14:14:43;2.80;;;1.50;;
36457;SDS011;22480;50.546;12.292;2023-06-01T14:17:08;4.55;;;1.40;;
36457;SDS011;22480;50.546;12.292;2023-06-01T14:19:34;4.40;;;2.17;;
36457;SDS011;22480;50.546;12.292;2023-06-01T14:22:00;5.63;;;1.42;;
36457;SDS011;22480;50.546;12.292;2023-06-01T14:24:26;5.05;;;1.58;;
36457;SDS011;22480;50.546;12.292;2023-06-01T14:26:52;4.82;;;1.35;;
36457;SDS011;22480;50.546;12.292;2023-06-01T14:29:17;5.32;;;1.65;;
36457;SDS011;22480;50.546;12.292;2023-06-01T14:31:43;3.33;;;1.50;;
36457;SDS011;22480;50.546;12.292;2023-06-01T14:34:09;3.65;;;1.63;;
36457;SDS011;22480;50.546;12.292;2023-06-01T14:36:35;5.03;;;1.77;;
36457;SDS011;22480;50.546;12.292;2023-06-01T14:39:01;3.08;;;2.00;;
36457;SDS011;22480;50.546;12.292;2023-06-01T14:41:27;6.93;;;1.70;;
36457;SDS011;22480;50.546;12.292;2023-06-01T14:43:53;3.25;;;1.77;;
36457;SDS011;22480;50.546;12.292;2023-06-01T14:46:18;2.88;;;1.70;;
36457;SDS011;22480;50.546;12.292;2023-06-01T14:48:46;3.65;;;1.40;;
36457;SDS011;22480;50.546;12.292;2023-06-01T14:51:12;2.08;;;1.65;;
36457;SDS011;22480;50.546;12.292;2023-06-01T14:53:37;4.63;;;1.58;;
36457;SDS011;22480;50.546;12.292;2023-06-01T14:56:04;3.78;;;1.70;;
36457;SDS011;22480;50.546;12.292;2023-06-01T14:58:31;5.40;;;1.50;;
36457;SDS011;22480;50.546;12.292;2023-06-01T15:00:57;4.10;;;1.50;;
36457;SDS011;22480;50.546;12.292;2023-06-01T15:03:24;5.75;;;1.80;;
36457;SDS011;22480;50.546;12.292;2023-06-01T15:05:50;4.07;;;1.65;;
36457;SDS011;22480;50.546;12.292;2023-06-01T15:08:17;2.97;;;1.65;;
36457;SDS011;22480;50.546;12.292;2023-06-01T15:10:46;5.03;;;2.05;;
36457;SDS011;22480;50.546;12.292;2023-06-01T15:13:12;3.20;;;1.67;;
36457;SDS011;22480;50.546;12.292;2023-06-01T15:15:41;7.57;;;3.03;;